Time;durP1;ratioP1;P1;durP2;ratioP2;P2;SDS_P1;SDS_P2;PMS_P1;PMS_P2;Temp;Humidity;BMP_temperature;BMP_pressure;BME280_temperature;BME280_humidity;BME280_pressure;Samples;Min_cycle;Max_cycle;Signal;HPM_P1;HPM_P2
2022/04/03 00:00:06;;;;;;;4.90;2.65;;;;;;;5.56;38.47;101519.94;5019049;28;96979;-73
2022/04/03 00:02:33;;;;;;;5.75;2.55;;;;;;;5.55;38.52;101526.06;5027211;28;100477;-71
2022/04/03 00:05:00;;;;;;;6.10;2.53;;;;;;;5.57;38.67;101520.81;5030222;28;99181;-69
2022/04/03 00:07:26;;;;;;;7.35;2.65;;;;;;;5.38;39.15;101529.63;5026983;28;96716;-71
2022/04/03 00:09:52;;;;;;;8.70;2.72;;;;;;;5.47;39.13;101524.34;5022131;28;96895;-69
2022/04/03 00:12:19;;;;;;;8.50;2.67;;;;;;;4.81;40.52;101516.53;5028898;27;98539;-69
2022/04/03 00:14:47;;;;;;;6.07;2.50;;;;;;;4.77;40.55;101516.56;5023615;27;99329;-69
2022/04/03 00:17:13;;;;;;;5.38;2.60;;;;;;;4.57;40.96;101518.28;5023240;27;96988;-72
2022/04/03 00:19:40;;;;;;;6.47;2.47;;;;;;;4.82;40.44;101514.78;5021840;27;97740;-71
2022/04/03 00:22:07;;;;;;;8.75;2.88;;;;;;;5.16;39.64;101513.91;5015530;27;100782;-71
2022/04/03 00:24:33;;;;;;;7.78;2.97;;;;;;;5.28;40.03;101515.63;5015958;27;98726;-71
2022/04/03 00:27:00;;;;;;;4.18;2.58;;;;;;;5.36;39.11;101513.88;5021431;28;97184;-71
2022/04/03 00:29:27;;;;;;;8.88;2.92;;;;;;;5.34;39.15;101507.75;5026013;27;98249;-72
2022/04/03 00:31:55;;;;;;;9.77;3.88;;;;;;;5.22;39.35;101506.03;5020201;28;97637;-72
2022/04/03 00:34:22;;;;;;;6.88;2.63;;;;;;;4.77;40.41;101506.06;5023574;28;98904;-73
2022/04/03 00:36:48;;;;;;;7.05;3.17;;;;;;;5.29;39.83;101513.88;5021173;28;96855;-72
2022/04/03 00:39:18;;;;;;;11.27;2.90;;;;;;;5.25;39.47;101509.53;5031312;27;96875;-72
2022/04/03 00:41:45;;;;;;;5.00;2.35;;;;;;;5.19;39.39;101510.41;5026729;28;98725;-72
2022/04/03 00:44:12;;;;;;;3.92;2.40;;;;;;;4.98;39.83;101506.09;5025149;28;99381;-72
2022/04/03 00:46:41;;;;;;;3.47;2.05;;;;;;;4.97;40.00;101511.31;5019490;28;96681;-73
2022/04/03 00:49:09;;;;;;;5.07;2.58;;;;;;;5.08;40.42;101510.44;5023666;28;97549;-72
2022/04/03 00:51:35;;;;;;;7.78;3.15;;;;;;;5.14;39.58;101512.16;5024570;27;99156;-72
2022/04/03 00:54:02;;;;;;;5.15;2.45;;;;;;;5.38;39.71;101511.25;5022084;28;99486;-73
2022/04/03 00:56:28;;;;;;;7.80;2.90;;;;;;;5.20;39.64;101506.91;5026805;27;96933;-72
2022/04/03 00:58:55;;;;;;;5.63;1.98;;;;;;;5.77;38.99;101512.91;5023527;27;96975;-71
2022/04/03 01:01:22;;;;;;;4.55;2.40;;;;;;;5.08;40.34;101507.81;5020292;27;99056;-72
2022/04/03 01:03:51;;;;;;;5.20;2.25;;;;;;;4.82;41.56;101509.56;5028174;28;98819;-72
2022/04/03 01:06:21;;;;;;;5.70;2.58;;;;;;;4.88;41.49;101509.56;5023275;27;96884;-71
2022/04/03 01:08:48;;;;;;;11.40;3.13;;;;;;;4.72;41.50;101513.94;5025754;28;97249;-72
2022/04/03 01:11:21;;;;;;;4.53;2.72;;;;;;;4.85;41.51;101506.97;5024320;27;99062;-72
2022/04/03 01:13:48;;;;;;;8.25;2.85;;;;;;;4.76;41.85;101514.78;5019576;28;99012;-71
2022/04/03 01:16:15;;;;;;;7.80;3.00;;;;;;;4.70;41.78;101515.66;5026009;28;97790;-73
2022/04/03 01:18:42;;;;;;;8.32;3.03;;;;;;;4.67;42.23;101518.28;5023274;28;96984;-70
2022/04/03 01:21:08;;;;;;;5.65;2.78;;;;;;;4.52;42.85;101520.03;5026095;28;99366;-73
2022/04/03 01:23:36;;;;;;;7.20;3.38;;;;;;;4.07;43.62;101519.00;5024717;28;101275;-74
2022/04/03 01:26:05;;;;;;;8.07;3.20;;;;;;;3.48;44.88;101518.75;5026418;28;98401;-70
2022/04/03 01:28:32;;;;;;;6.28;3.10;;;;;;;3.09;46.47;101520.25;5025490;28;97281;-71
2022/04/03 01:30:58;;;;;;;8.45;2.78;;;;;;;4.03;44.03;101513.78;5021884;28;98515;-72
2022/04/03 01:33:25;;;;;;;6.22;2.92;;;;;;;3.93;43.74;101520.75;5022312;27;101858;-71
2022/04/03 01:35:52;;;;;;;3.85;2.28;;;;;;;3.60;44.45;101519.72;5028496;28;97782;-71
2022/04/03 01:38:18;;;;;;;5.47;2.72;;;;;;;4.31;43.11;101521.72;5024497;28;96878;-71
2022/04/03 01:40:45;;;;;;;5.60;2.70;;;;;;;4.45;42.01;101518.25;5026893;27;98296;-71
2022/04/03 01:43:13;;;;;;;7.20;2.90;;;;;;;4.69;41.47;101519.16;5028183;28;99072;-71
2022/04/03 01:45:41;;;;;;;5.80;2.80;;;;;;;4.96;41.10;101520.03;5028554;28;96982;-72
2022/04/03 01:48:09;;;;;;;5.82;2.67;;;;;;;4.59;41.57;101517.41;5022907;28;97796;-71
2022/04/03 01:50:37;;;;;;;8.32;2.72;;;;;;;4.71;41.20;101514.81;5025846;28;99268;-70
2022/04/03 01:53:04;;;;;;;7.80;2.60;;;;;;;4.97;41.28;101516.56;5021212;27;98116;-71
2022/04/03 01:55:30;;;;;;;9.63;2.88;;;;;;;4.99;40.65;101518.28;5025612;28;97307;-72
2022/04/03 01:57:57;;;;;;;5.72;2.58;;;;;;;5.12;40.78;101517.38;5018199;28;96880;-71
2022/04/03 02:00:26;;;;;;;8.23;2.85;;;;;;;5.05;40.61;101515.69;5018646;28;98617;-72
2022/04/03 02:02:53;;;;;;;6.30;3.35;;;;;;;5.30;40.01;101511.28;5022677;27;99573;-72
2022/04/03 02:05:21;;;;;;;6.65;3.17;;;;;;;5.25;40.68;101501.69;5022337;28;96845;-72
2022/04/03 02:07:47;;;;;;;6.93;3.22;;;;;;;4.99;41.56;101515.66;5020053;28;97843;-71
2022/04/03 02:10:14;;;;;;;7.63;3.95;;;;;;;5.28;40.87;101504.28;5021963;28;99311;-72
2022/04/03 02:12:42;;;;;;;6.72;3.15;;;;;;;5.34;40.41;101505.13;5017839;28;98107;-72
2022/04/03 02:15:11;;;;;;;5.63;3.17;;;;;;;5.34;40.62;101509.50;5028998;28;96731;-73
2022/04/03 02:17:39;;;;;;;11.02;2.90;;;;;;;5.52;39.92;101509.47;5022271;27;96892;-71
2022/04/03 02:20:10;;;;;;;7.13;2.85;;;;;;;5.40;40.05;101514.72;5017517;28;98948;-70
2022/04/03 02:22:37;;;;;;;5.70;2.78;;;;;;;5.68;39.43;101513.78;5027501;28;101768;-69
2022/04/03 02:25:09;;;;;;;3.90;2.67;;;;;;;5.36;39.90;101520.88;5018822;28;97499;-69
2022/04/03 02:27:36;;;;;;;4.22;2.42;;;;;;;5.78;39.22;101509.38;5022655;28;96911;-69
2022/04/03 02:30:04;;;;;;;4.90;2.55;;;;;;;5.75;39.26;101506.78;5022495;28;98907;-70
2022/04/03 02:32:30;;;;;;;5.55;2.90;;;;;;;5.52;39.94;101515.56;5018702;28;99661;-71
2022/04/03 02:34:58;;;;;;;8.85;2.53;;;;;;;5.65;39.96;101515.53;5018921;28;96801;-69
2022/04/03 02:37:25;;;;;;;8.48;3.17;;;;;;;5.51;39.45;101507.75;5020845;28;98722;-70
2022/04/03 02:39:52;;;;;;;6.90;3.45;;;;;;;5.45;40.25;101505.97;5019753;27;99112;-70
2022/04/03 02:42:18;;;;;;;4.72;2.50;;;;;;;5.19;40.70;101513.00;5023367;28;99163;-70
2022/04/03 02:44:44;;;;;;;8.02;3.17;;;;;;;5.52;40.02;101509.47;5020930;28;96701;-70
2022/04/03 02:47:11;;;;;;;5.78;2.78;;;;;;;5.18;40.56;101506.06;5016827;27;97617;-71
2022/04/03 02:49:38;;;;;;;5.30;2.45;;;;;;;5.43;40.33;101504.25;5022005;28;97730;-71
2022/04/03 02:52:06;;;;;;;6.75;2.83;;;;;;;5.57;40.06;101499.84;5020772;28;101432;-70
2022/04/03 02:54:32;;;;;;;5.35;2.60;;;;;;;5.50;39.76;101506.00;5025102;28;97437;-71
2022/04/03 02:56:59;;;;;;;6.20;2.85;;;;;;;5.46;39.58;101501.59;5024181;28;98352;-69
2022/04/03 02:59:25;;;;;;;5.82;2.70;;;;;;;5.35;39.88;101500.78;5025691;28;98976;-71
2022/04/03 03:01:52;;;;;;;7.30;2.92;;;;;;;4.99;40.18;101497.31;5028679;27;99118;-72
2022/04/03 03:04:18;;;;;;;9.30;2.92;;;;;;;5.43;39.86;101493.78;5026259;28;96845;-72
2022/04/03 03:06:46;;;;;;;7.68;3.33;;;;;;;5.79;39.29;101487.50;5026566;28;96808;-71
2022/04/03 03:09:13;;;;;;;5.25;2.67;;;;;;;5.84;39.11;101494.47;5023643;27;99380;-71
2022/04/03 03:11:42;;;;;;;7.38;2.53;;;;;;;5.54;39.81;101498.09;5018723;28;97664;-72
2022/04/03 03:14:09;;;;;;;6.25;2.42;;;;;;;5.56;39.80;101492.88;5025750;28;96950;-72
2022/04/03 03:16:35;;;;;;;7.47;2.67;;;;;;;5.84;39.35;101491.84;5026660;27;97073;-72
2022/04/03 03:19:02;;;;;;;5.80;2.40;;;;;;;5.73;39.05;101485.78;5025586;28;97973;-72
2022/04/03 03:21:28;;;;;;;7.75;2.50;;;;;;;5.55;39.08;101491.13;5027559;28;100388;-71
2022/04/03 03:23:55;;;;;;;3.97;2.35;;;;;;;5.67;38.82;101484.94;5021818;27;97009;-71
2022/04/03 03:26:23;;;;;;;6.00;2.90;;;;;;;5.85;38.78;101490.97;5020472;27;96902;-71
2022/04/03 03:28:50;;;;;;;7.47;2.75;;;;;;;5.86;39.03;101487.50;5023385;28;98672;-74
2022/04/03 03:31:17;;;;;;;7.32;2.42;;;;;;;5.98;38.59;101487.47;5025419;28;101089;-71
2022/04/03 03:33:43;;;;;;;3.92;2.40;;;;;;;6.03;38.19;101486.59;5025862;27;96887;-71
2022/04/03 03:36:10;;;;;;;6.18;2.13;;;;;;;6.31;38.10;101488.16;5022241;27;97732;-70
2022/04/03 03:38:37;;;;;;;3.28;2.30;;;;;;;6.49;37.60;101481.94;5023974;28;98536;-70
2022/04/03 03:41:04;;;;;;;6.75;2.33;;;;;;;6.40;37.58;101480.22;5028200;27;99382;-71
2022/04/03 03:43:32;;;;;;;5.45;2.25;;;;;;;6.34;37.04;101488.13;5025870;28;96736;-70
2022/04/03 03:45:59;;;;;;;4.45;1.88;;;;;;;6.41;36.61;101487.22;5024995;28;97652;-69
2022/04/03 03:48:26;;;;;;;3.38;2.00;;;;;;;6.13;37.17;101486.50;5026053;27;98894;-68
2022/04/03 03:50:53;;;;;;;4.05;2.00;;;;;;;6.02;38.10;101490.09;5023689;28;97021;-73
2022/04/03 03:53:19;;;;;;;3.08;2.20;;;;;;;6.09;37.63;101491.78;5020978;28;98681;-71
2022/04/03 03:55:46;;;;;;;5.32;2.45;;;;;;;6.00;37.38;101487.47;5024603;28;96869;-71
2022/04/03 03:58:13;;;;;;;2.72;2.03;;;;;;;6.02;36.81;101487.47;5019489;27;98952;-72
2022/04/03 04:00:41;;;;;;;4.13;1.88;;;;;;;6.05;37.63;101485.69;5022983;28;99236;-72
2022/04/03 04:03:08;;;;;;;6.10;2.38;;;;;;;6.12;37.81;101491.75;5022101;27;96853;-71
2022/04/03 04:05:35;;;;;;;3.60;2.33;;;;;;;6.40;36.91;101486.34;5023107;28;98851;-72
2022/04/03 04:08:02;;;;;;;5.95;2.67;;;;;;;6.07;37.13;101489.16;5023891;28;99028;-72
2022/04/03 04:10:28;;;;;;;6.07;2.88;;;;;;;5.66;37.73;101499.81;5025425;28;99022;-72
2022/04/03 04:12:55;;;;;;;4.88;2.80;;;;;;;5.09;38.24;101499.06;5022872;28;98814;-71
2022/04/03 04:15:22;;;;;;;7.53;3.30;;;;;;;5.32;38.77;101498.16;5025821;28;98406;-72
2022/04/03 04:17:55;;;;;;;5.57;2.80;;;;;;;5.53;37.71;101496.34;5018477;28;99299;-71
2022/04/03 04:20:23;;;;;;;6.75;3.08;;;;;;;5.09;39.08;101500.81;5030092;28;99644;-71
2022/04/03 04:22:51;;;;;;;5.75;3.17;;;;;;;5.06;38.71;101498.19;5019783;27;96780;-73
2022/04/03 04:25:21;;;;;;;4.68;3.10;;;;;;;5.33;38.77;101503.38;5026697;28;96961;-74
2022/04/03 04:27:48;;;;;;;7.22;3.28;;;;;;;5.58;37.86;101498.94;5026536;28;98542;-74
2022/04/03 04:30:16;;;;;;;8.02;3.40;;;;;;;4.91;38.45;101503.47;5017433;27;97753;-70
2022/04/03 04:32:42;;;;;;;11.60;3.67;;;;;;;5.33;38.09;101497.28;5023298;28;98518;-71
2022/04/03 04:35:11;;;;;;;7.43;3.70;;;;;;;5.56;37.74;101505.97;5028904;28;97153;-71
2022/04/03 04:37:37;;;;;;;7.00;3.53;;;;;;;5.87;36.57;101498.84;5027185;28;98916;-71
2022/04/03 04:40:06;;;;;;;6.15;3.53;;;;;;;5.46;37.09;101509.47;5024379;28;97567;-71
2022/04/03 04:42:33;;;;;;;4.55;2.67;;;;;;;5.47;37.04;101501.63;5022693;28;96728;-71
2022/04/03 04:45:00;;;;;;;8.20;3.33;;;;;;;5.20;37.99;101512.16;5023756;28;96806;-71
2022/04/03 04:47:26;;;;;;;4.13;2.75;;;;;;;5.51;37.62;101502.50;5022017;28;98770;-71
2022/04/03 04:49:53;;;;;;;4.35;2.38;;;;;;;5.56;37.57;101503.34;5021186;28;100301;-71
2022/04/03 04:52:21;;;;;;;7.70;3.10;;;;;;;5.76;36.96;101501.53;5029715;28;96693;-72
2022/04/03 04:54:47;;;;;;;7.90;2.58;;;;;;;5.63;37.34;101505.06;5022667;28;98767;-71
2022/04/03 04:57:14;;;;;;;5.90;2.58;;;;;;;5.49;37.93;101504.25;5025986;27;99448;-73
2022/04/03 04:59:40;;;;;;;7.60;2.58;;;;;;;5.62;37.08;101511.19;5021043;27;99265;-71
2022/04/03 05:02:07;;;;;;;4.50;2.40;;;;;;;5.41;37.45;101508.63;5022296;28;97921;-71
2022/04/03 05:04:36;;;;;;;6.03;2.75;;;;;;;5.40;37.58;101512.13;5032694;28;96731;-71
2022/04/03 05:07:03;;;;;;;5.35;2.60;;;;;;;5.39;37.22;101516.47;5029341;27;97976;-72
2022/04/03 05:09:31;;;;;;;3.47;2.45;;;;;;;5.16;37.73;101524.41;5022866;27;99615;-72
2022/04/03 05:11:59;;;;;;;5.55;2.45;;;;;;;5.65;37.82;101520.78;5026644;28;97787;-72
2022/04/03 05:14:26;;;;;;;5.55;2.80;;;;;;;4.89;38.50;101519.16;5022462;28;98993;-71
2022/04/03 05:16:52;;;;;;;3.25;2.17;;;;;;;5.54;37.78;101526.94;5022669;27;101491;-71
2022/04/03 05:19:19;;;;;;;4.05;2.70;;;;;;;5.32;36.89;101529.59;5028382;27;99150;-71
2022/04/03 05:21:45;;;;;;;7.22;2.50;;;;;;;5.39;37.40;101528.72;5026205;28;96635;-71
2022/04/03 05:24:12;;;;;;;5.25;2.50;;;;;;;5.47;36.77;101532.19;5021873;27;97277;-73
2022/04/03 05:26:40;;;;;;;4.43;2.70;;;;;;;5.43;36.62;101527.84;5025327;28;99871;-71
2022/04/03 05:29:07;;;;;;;4.68;2.63;;;;;;;5.50;36.55;101526.97;5020547;28;100995;-73
2022/04/03 05:31:34;;;;;;;4.30;2.85;;;;;;;5.63;36.63;101533.91;5021183;28;98360;-71
2022/04/03 05:34:00;;;;;;;5.00;2.30;;;;;;;5.09;37.33;101530.50;5024344;28;98901;-72
2022/04/03 05:36:27;;;;;;;6.07;2.63;;;;;;;5.13;36.86;101534.88;5023156;28;98203;-72
2022/04/03 05:38:54;;;;;;;3.25;2.45;;;;;;;5.32;37.02;101537.47;5029188;28;98983;-72
2022/04/03 05:41:21;;;;;;;4.47;2.60;;;;;;;5.44;36.30;101532.22;5025184;28;96686;-71
2022/04/03 05:43:49;;;;;;;6.32;2.75;;;;;;;5.16;37.50;101534.00;5024939;28;96718;-72
2022/04/03 05:46:15;;;;;;;3.92;2.50;;;;;;;5.41;37.12;101532.22;5023021;27;98432;-73
2022/04/03 05:48:42;;;;;;;3.67;2.25;;;;;;;6.04;36.14;101530.31;5019108;28;99029;-72
2022/04/03 05:51:09;;;;;;;3.08;2.10;;;;;;;5.59;36.34;101537.41;5025289;27;96800;-73
2022/04/03 05:53:35;;;;;;;3.72;2.08;;;;;;;5.92;35.75;101531.22;5027361;28;97756;-73
2022/04/03 05:56:02;;;;;;;9.25;2.67;;;;;;;6.15;35.66;101531.13;5022433;28;99739;-71
2022/04/03 05:58:28;;;;;;;5.00;2.55;;;;;;;6.01;36.18;101531.19;5028489;28;99959;-72
2022/04/03 06:00:56;;;;;;;5.65;2.58;;;;;;;5.61;36.40;101541.78;5016743;28;97012;-73
2022/04/03 06:03:23;;;;;;;4.55;2.63;;;;;;;5.57;37.34;101534.81;5020597;28;97365;-72
2022/04/03 06:05:51;;;;;;;8.23;2.55;;;;;;;5.87;36.50;101536.47;5024267;27;100519;-73
2022/04/03 06:08:20;;;;;;;5.72;2.30;;;;;;;5.94;36.45;101538.22;5022875;28;100283;-74
2022/04/03 06:10:47;;;;;;;10.93;2.55;;;;;;;5.35;37.05;101548.81;5019277;27;98218;-73
2022/04/03 06:13:14;;;;;;;5.35;2.75;;;;;;;5.73;36.38;101540.88;5020936;28;96869;-72
2022/04/03 06:15:43;;;;;;;4.72;2.47;;;;;;;6.13;36.69;101541.63;5017461;28;99195;-73
2022/04/03 06:18:13;;;;;;;5.75;3.13;;;;;;;6.42;35.55;101541.47;5026323;28;101624;-72
2022/04/03 06:20:41;;;;;;;5.13;2.45;;;;;;;6.17;35.70;101542.50;5018833;28;96901;-71
2022/04/03 06:23:10;;;;;;;4.47;2.33;;;;;;;6.35;35.53;101535.38;5028709;28;96901;-71
2022/04/03 06:25:39;;;;;;;3.85;2.20;;;;;;;6.48;35.33;101533.56;5030722;27;100141;-70
2022/04/03 06:28:06;;;;;;;5.47;2.80;;;;;;;6.20;35.78;101539.84;5024332;28;98870;-71
2022/04/03 06:30:36;;;;;;;6.35;2.38;;;;;;;5.71;36.70;101540.00;5023974;28;96736;-70
2022/04/03 06:33:03;;;;;;;3.63;2.40;;;;;;;5.85;37.00;101540.81;5028690;28;97854;-71
2022/04/03 06:35:31;;;;;;;5.07;2.40;;;;;;;6.12;36.40;101536.38;5025533;27;99508;-70
2022/04/03 06:37:58;;;;;;;5.10;2.65;;;;;;;6.17;36.08;101537.25;5022989;27;100962;-70
2022/04/03 06:40:25;;;;;;;6.05;2.42;;;;;;;6.20;35.85;101534.59;5028994;28;96854;-71
2022/04/03 06:42:53;;;;;;;6.88;2.95;;;;;;;6.40;35.91;101537.97;5022743;28;98851;-71
2022/04/03 06:45:20;;;;;;;7.93;3.05;;;;;;;7.00;34.98;101539.31;5027362;28;98224;-69
2022/04/03 06:47:48;;;;;;;8.32;2.78;;;;;;;7.41;33.81;101536.31;5024025;28;99662;-70
2022/04/03 06:50:14;;;;;;;5.70;2.63;;;;;;;6.96;34.53;101548.06;5025835;27;96867;-72
2022/04/03 06:52:46;;;;;;;6.53;2.72;;;;;;;7.08;34.25;101548.00;5024718;28;96831;-71
2022/04/03 06:55:13;;;;;;;5.22;2.58;;;;;;;7.04;34.52;101545.41;5026019;28;101537;-72
2022/04/03 06:57:40;;;;;;;4.50;2.42;;;;;;;6.96;34.40;101541.94;5027130;27;99261;-70
2022/04/03 07:00:08;;;;;;;5.28;2.40;;;;;;;7.42;33.71;101538.03;5024249;27;96851;-70
2022/04/03 07:02:36;;;;;;;4.95;2.67;;;;;;;7.94;33.05;101533.06;5022641;28;97899;-70
2022/04/03 07:05:02;;;;;;;4.35;2.53;;;;;;;7.81;32.95;101535.88;5024834;28;97630;-73
2022/04/03 07:07:29;;;;;;;4.07;2.45;;;;;;;8.00;32.62;101532.13;5028869;28;98725;-70
2022/04/03 07:09:57;;;;;;;4.07;2.42;;;;;;;7.93;32.61;101535.72;5026103;28;96830;-70
2022/04/03 07:12:24;;;;;;;9.82;2.45;;;;;;;8.38;31.88;101540.44;5020694;28;97740;-69
2022/04/03 07:14:50;;;;;;;6.32;2.40;;;;;;;8.07;32.30;101544.31;5027836;28;97372;-71
2022/04/03 07:17:20;;;;;;;4.47;2.15;;;;;;;7.44;33.15;101538.00;5027427;28;98186;-70
2022/04/03 07:19:47;;;;;;;5.47;2.25;;;;;;;7.69;32.91;101547.38;5028338;28;97610;-71
2022/04/03 07:22:14;;;;;;;3.03;2.20;;;;;;;7.92;32.69;101547.13;5027721;27;96890;-70
2022/04/03 07:24:40;;;;;;;4.35;1.88;;;;;;;8.09;32.13;101555.69;5017512;27;101207;-72
2022/04/03 07:27:08;;;;;;;5.68;2.58;;;;;;;8.08;32.26;101556.56;5022426;28;99296;-70
2022/04/03 07:29:35;;;;;;;7.00;2.67;;;;;;;8.45;31.83;101564.91;5027382;28;97921;-71
2022/04/03 07:32:03;;;;;;;5.80;2.92;;;;;;;8.27;32.25;101565.13;5024573;27;96972;-70
2022/04/03 07:34:30;;;;;;;2.90;2.10;;;;;;;8.79;31.43;101568.78;5020377;28;98321;-71
2022/04/03 07:36:56;;;;;;;5.82;2.53;;;;;;;8.85;30.96;101566.97;5019783;28;100510;-71
2022/04/03 07:39:23;;;;;;;9.35;2.75;;;;;;;9.29;30.40;101571.50;5021775;28;97980;-70
2022/04/03 07:41:50;;;;;;;3.28;2.10;;;;;;;9.16;30.40;101573.50;5027786;27;97299;-70
2022/04/03 07:44:18;;;;;;;5.95;2.47;;;;;;;9.33;30.57;101574.06;5017475;27;100982;-71
2022/04/03 07:46:44;;;;;;;6.00;2.53;;;;;;;8.69;30.79;101572.47;5029271;28;102376;-69
2022/04/03 07:49:11;;;;;;;5.70;1.90;;;;;;;8.32;32.07;101572.13;5022710;28;98780;-71
2022/04/03 07:51:38;;;;;;;5.60;2.10;;;;;;;8.22;32.00;101569.56;5022935;27;97762;-70
2022/04/03 07:54:05;;;;;;;6.60;3.03;;;;;;;8.48;31.53;101571.88;5014455;28;99111;-71
2022/04/03 07:56:32;;;;;;;3.67;2.05;;;;;;;8.77;31.14;101564.44;5018228;28;100575;-73
2022/04/03 07:58:59;;;;;;;3.78;2.35;;;;;;;8.62;31.47;101569.94;5024439;28;96839;-70
2022/04/03 08:01:30;;;;;;;5.25;1.50;;;;;;;8.63;31.86;101563.78;5020057;28;96768;-72
2022/04/03 08:03:56;;;;;;;3.35;1.80;;;;;;;8.64;32.01;101558.50;5023282;28;97590;-70
2022/04/03 08:06:22;;;;;;;2.90;1.60;;;;;;;8.51;31.93;101561.31;5015964;28;101892;-72
2022/04/03 08:08:52;;;;;;;3.97;1.80;;;;;;;8.42;32.07;101557.03;5020402;28;97834;-70
2022/04/03 08:11:19;;;;;;;3.55;1.60;;;;;;;8.81;31.67;101552.94;5017126;27;99033;-71
2022/04/03 08:13:47;;;;;;;3.05;1.52;;;;;;;8.15;32.56;101558.25;5014427;27;98721;-70
2022/04/03 08:16:14;;;;;;;3.25;1.63;;;;;;;7.91;32.79;101554.16;5021039;28;99375;-70
2022/04/03 08:18:43;;;;;;;7.60;2.08;;;;;;;8.77;31.92;101549.50;5022391;28;97207;-71
2022/04/03 08:21:10;;;;;;;9.57;1.80;;;;;;;9.38;31.13;101547.63;5018070;28;97827;-72
2022/04/03 08:23:38;;;;;;;3.63;1.65;;;;;;;9.38;30.65;101558.19;5021708;28;99270;-70
2022/04/03 08:26:05;;;;;;;4.63;1.73;;;;;;;9.14;30.22;101557.69;5022926;28;101474;-70
2022/04/03 08:28:34;;;;;;;5.43;2.65;;;;;;;8.71;30.81;101554.00;5015666;27;96805;-70
2022/04/03 08:31:00;;;;;;;3.90;1.50;;;;;;;8.82;31.08;101556.47;5024476;28;96931;-70
2022/04/03 08:33:27;;;;;;;3.63;1.58;;;;;;;9.24;30.10;101557.53;5023454;27;99329;-70
2022/04/03 08:35:56;;;;;;;5.00;1.55;;;;;;;9.12;30.01;101556.84;5024279;28;99129;-70
2022/04/03 08:38:23;;;;;;;3.22;1.45;;;;;;;9.48;29.71;101551.81;5020450;27;96752;-70
2022/04/03 08:40:50;;;;;;;2.67;1.55;;;;;;;9.78;29.43;101553.88;5031392;27;96815;-71
2022/04/03 08:43:17;;;;;;;8.95;1.60;;;;;;;9.72;29.49;101555.75;5025771;28;99050;-71
2022/04/03 08:45:46;;;;;;;4.85;1.60;;;;;;;10.30;28.25;101552.88;5028169;28;98877;-71
2022/04/03 08:48:17;;;;;;;3.03;1.52;;;;;;;10.39;28.09;101547.38;5025978;28;97243;-70
2022/04/03 08:50:47;;;;;;;5.07;1.65;;;;;;;10.61;27.36;101550.41;5023669;28;97431;-70
2022/04/03 08:53:15;;;;;;;3.70;1.33;;;;;;;10.89;27.44;101554.16;5017015;28;98955;-71
2022/04/03 08:55:41;;;;;;;2.13;1.42;;;;;;;10.75;26.43;101546.56;5021128;27;97697;-71
2022/04/03 08:58:08;;;;;;;3.58;1.88;;;;;;;11.16;26.55;101549.94;5023093;27;96858;-72
2022/04/03 09:00:34;;;;;;;3.65;1.73;;;;;;;10.90;26.33;101550.56;5013292;27;97246;-72
2022/04/03 09:03:01;;;;;;;2.63;1.33;;;;;;;10.31;26.72;101544.00;5014608;28;101830;-72
2022/04/03 09:05:38;;;;;;;3.38;1.63;;;;;;;10.37;26.91;101541.28;5022022;28;97715;-70
2022/04/03 09:08:06;;;;;;;2.70;1.35;;;;;;;10.21;27.03;101559.22;5021033;27;97033;-71
2022/04/03 09:10:35;;;;;;;5.43;1.42;;;;;;;9.74;27.33;101544.28;5023474;28;96958;-72
2022/04/03 09:13:02;;;;;;;6.15;2.08;;;;;;;9.62;27.94;101543.66;5023289;27;98856;-71
2022/04/03 09:15:31;;;;;;;3.28;1.83;;;;;;;10.27;28.00;101550.28;5026336;28;98897;-72
2022/04/03 09:17:59;;;;;;;3.33;1.90;;;;;;;9.89;28.69;101541.34;5018663;27;96724;-71
2022/04/03 09:20:27;;;;;;;5.38;1.60;;;;;;;10.39;26.15;101539.44;5019340;27;97364;-71
2022/04/03 09:22:56;;;;;;;3.05;1.83;;;;;;;9.56;27.04;101537.59;5025676;28;99473;-72
2022/04/03 09:25:27;;;;;;;6.97;1.70;;;;;;;10.08;26.04;101530.41;5016464;27;99277;-72
2022/04/03 09:27:58;;;;;;;7.72;2.15;;;;;;;10.15;26.21;101534.66;5019865;28;96899;-72
2022/04/03 09:30:29;;;;;;;3.58;1.58;;;;;;;10.52;25.57;101534.75;5018731;27;96870;-71
2022/04/03 09:32:57;;;;;;;3.00;1.50;;;;;;;11.02;24.11;101531.78;5018673;28;102064;-73
2022/04/03 09:35:26;;;;;;;4.05;1.60;;;;;;;10.54;25.13;101531.19;5013491;27;98904;-72
2022/04/03 09:38:10;;;;;;;2.85;1.23;;;;;;;9.74;25.31;101532.84;5019314;28;96988;-72
2022/04/03 09:40:38;;;;;;;3.42;1.50;;;;;;;10.64;24.65;101527.41;5021402;27;97232;-72
2022/04/03 09:43:20;;;;;;;5.00;1.50;;;;;;;11.01;24.90;101527.41;5022977;27;97996;-72
2022/04/03 09:45:49;;;;;;;3.63;1.63;;;;;;;11.15;24.95;101514.72;5016399;27;98645;-72
2022/04/03 09:48:21;;;;;;;4.72;1.70;;;;;;;11.02;25.29;101510.63;5020416;27;97780;-71
2022/04/03 09:51:02;;;;;;;6.78;1.90;;;;;;;10.65;25.63;101510.66;5019917;27;97017;-72
2022/04/03 09:53:39;;;;;;;3.05;1.75;;;;;;;10.36;24.69;101510.47;5022341;28;102086;-73
2022/04/03 09:56:08;;;;;;;4.15;1.90;;;;;;;10.53;24.81;101518.00;5018221;28;96743;-73
2022/04/03 09:58:45;;;;;;;3.42;1.70;;;;;;;10.75;24.28;101508.66;5017955;28;97769;-72
2022/04/03 10:01:21;;;;;;;6.13;1.40;;;;;;;10.64;24.48;101505.38;5023838;28;97008;-73
2022/04/03 10:03:50;;;;;;;6.13;1.65;;;;;;;10.99;24.00;101510.69;5026134;28;98263;-72
2022/04/03 10:06:17;;;;;;;2.75;1.58;;;;;;;11.01;23.63;101500.09;5021154;28;98690;-73
2022/04/03 10:08:46;;;;;;;4.55;1.90;;;;;;;10.63;24.09;101501.88;5018010;27;97453;-73
2022/04/03 10:11:16;;;;;;;14.88;1.90;;;;;;;11.51;23.53;101496.09;5015900;27;99100;-72
2022/04/03 10:13:45;;;;;;;65.20;4.32;;;;;;;10.25;24.36;101510.69;5018592;28;98166;-72
2022/04/03 10:16:12;;;;;;;5.55;2.35;;;;;;;10.93;23.94;101500.28;5019411;28;99019;-72
2022/04/03 10:18:38;;;;;;;6.15;1.58;;;;;;;9.99;25.50;101490.09;5017870;28;97102;-70
2022/04/03 10:21:09;;;;;;;2.80;1.60;;;;;;;10.76;24.68;101495.38;5023170;28;97423;-70
2022/04/03 10:23:40;;;;;;;2.80;1.50;;;;;;;9.93;25.28;101490.22;5014737;27;99665;-71
2022/04/03 10:26:11;;;;;;;3.10;2.13;;;;;;;10.60;24.49;101487.88;5019083;27;99155;-71
2022/04/03 10:28:41;;;;;;;2.67;1.40;;;;;;;11.02;24.30;101491.25;5016396;28;97389;-72
2022/04/03 10:31:09;;;;;;;3.25;1.42;;;;;;;11.37;23.95;101483.25;5014105;27;97075;-71
2022/04/03 10:33:43;;;;;;;3.92;1.90;;;;;;;10.62;23.70;101484.31;5018280;28;99820;-71
2022/04/03 10:36:12;;;;;;;24.25;2.30;;;;;;;10.73;23.61;101482.25;5013142;27;98719;-71
2022/04/03 10:38:42;;;;;;;3.78;2.20;;;;;;;10.26;24.19;101479.84;5021641;28;97282;-71
2022/04/03 10:41:26;;;;;;;3.78;1.83;;;;;;;10.10;24.24;101481.97;5015527;27;96811;-70
2022/04/03 10:44:11;;;;;;;3.70;1.40;;;;;;;9.51;25.17;101475.28;5017060;27;99144;-71
2022/04/03 10:47:07;;;;;;;9.38;1.40;;;;;;;8.71;25.41;101477.59;5011960;28;97672;-70
2022/04/03 10:49:43;;;;;;;4.65;2.08;;;;;;;9.70;24.11;101471.38;5003480;28;97478;-72
2022/04/03 10:52:24;;;;;;;3.93;1.90;;;;;;;9.38;24.41;101457.94;5026591;28;97076;-71
2022/04/03 10:54:52;;;;;;;3.42;1.58;;;;;;;11.11;23.03;101454.84;5018504;27;97933;-72
2022/04/03 10:57:37;;;;;;;7.03;1.70;;;;;;;10.24;23.52;101452.63;5013092;28;100133;-73
2022/04/03 11:00:32;;;;;;;2.33;1.60;;;;;;;11.31;22.64;101456.94;5021843;28;97491;-73
2022/04/03 11:03:24;;;;;;;4.85;1.70;;;;;;;11.13;22.71;101442.44;5016724;27;97140;-73
2022/04/03 11:05:53;;;;;;;6.30;1.50;;;;;;;10.95;22.86;101435.00;5013094;27;99151;-72
2022/04/03 11:08:43;;;;;;;36.25;3.08;;;;;;;10.25;23.84;101442.00;5017712;27;98740;-72
2022/04/03 11:11:11;;;;;;;3.63;1.42;;;;;;;9.67;24.31;101441.50;5019384;27;97401;-72
2022/04/03 11:13:40;;;;;;;2.25;1.65;;;;;;;11.15;23.00;101434.47;5022497;27;97055;-74
2022/04/03 11:16:08;;;;;;;2.20;1.40;;;;;;;11.68;22.02;101421.53;5013150;27;101947;-72
2022/04/03 11:18:36;;;;;;;5.55;1.50;;;;;;;11.87;21.46;101425.38;5018243;27;101869;-73
2022/04/03 11:21:11;;;;;;;2.35;1.50;;;;;;;11.81;21.27;101421.16;5019618;27;96831;-74
2022/04/03 11:23:39;;;;;;;2.65;1.50;;;;;;;12.45;20.99;101419.13;5024473;28;96725;-73
2022/04/03 11:26:06;;;;;;;6.35;1.85;;;;;;;12.46;20.80;101412.06;5020701;27;99574;-70
2022/04/03 11:28:36;;;;;;;1.48;1.20;;;;;;;12.61;20.88;101403.56;5023889;28;99589;-70
2022/04/03 11:31:05;;;;;;;5.80;1.92;;;;;;;12.34;20.86;101405.34;5020966;27;96809;-71
2022/04/03 11:33:36;;;;;;;3.67;2.10;;;;;;;12.37;21.03;101399.97;5016983;27;97196;-71
2022/04/03 11:36:04;;;;;;;5.88;1.73;;;;;;;11.93;21.94;101396.06;5022521;28;99364;-75